Time;durP1;ratioP1;P1;durP2;ratioP2;P2;SDS_P1;SDS_P2;PMS_P1;PMS_P2;Temp;Humidity;BMP_temperature;BMP_pressure;BME280_temperature;BME280_humidity;BME280_pressure;Samples;Min_cycle;Max_cycle;Signal;HPM_P1;HPM_P2
2022/07/12 00:01:07;;;;;;;1.70;1.10;;;15.70;99.90;;;;;;5002525;28;20169;-69
2022/07/12 00:03:33;;;;;;;3.22;1.35;;;15.70;99.90;;;;;;5002497;28;20030;-71
2022/07/12 00:06:00;;;;;;;1.45;1.20;;;15.80;99.90;;;;;;5001579;28;20057;-70
2022/07/12 00:08:25;;;;;;;2.20;1.10;;;15.70;99.90;;;;;;5001903;28;20047;-69
2022/07/12 00:10:51;;;;;;;1.83;1.10;;;15.60;99.90;;;;;;5001416;28;20042;-70
2022/07/12 00:13:17;;;;;;;1.05;0.77;;;15.70;99.90;;;;;;5002449;28;20030;-69
2022/07/12 00:15:43;;;;;;;1.88;1.08;;;15.60;99.90;;;;;;5002591;28;20110;-69
2022/07/12 00:18:10;;;;;;;3.88;1.20;;;15.70;99.90;;;;;;5001776;28;20024;-70
2022/07/12 00:20:37;;;;;;;1.25;0.77;;;15.70;99.90;;;;;;5002197;28;20116;-69
2022/07/12 00:23:03;;;;;;;2.17;0.98;;;15.70;99.90;;;;;;5001439;28;20439;-70
2022/07/12 00:25:29;;;;;;;1.40;1.08;;;15.70;99.90;;;;;;5001551;28;20036;-69
2022/07/12 00:27:55;;;;;;;2.03;0.98;;;15.70;99.90;;;;;;5001047;28;20399;-68
2022/07/12 00:30:21;;;;;;;1.63;1.00;;;15.70;99.90;;;;;;4999989;28;20042;-70
2022/07/12 00:32:47;;;;;;;2.72;1.17;;;15.70;99.90;;;;;;5002024;28;20048;-69
2022/07/12 00:35:13;;;;;;;1.27;1.08;;;15.60;99.90;;;;;;5002266;28;20125;-69
2022/07/12 00:37:39;;;;;;;1.83;1.10;;;15.80;99.90;;;;;;5001332;28;20471;-70
2022/07/12 00:40:08;;;;;;;1.98;1.65;;;15.70;99.90;;;;;;5000857;28;20474;-69
2022/07/12 00:42:34;;;;;;;3.63;1.35;;;15.60;99.90;;;;;;5000880;28;20038;-69
2022/07/12 00:45:01;;;;;;;0.93;0.73;;;15.70;99.90;;;;;;5001926;28;20022;-69
2022/07/12 00:47:40;;;;;;;1.60;1.13;;;15.70;99.90;;;;;;5001421;28;20046;-70
2022/07/12 00:50:06;;;;;;;2.50;1.15;;;15.60;99.90;;;;;;5001171;28;20084;-69
2022/07/12 00:52:32;;;;;;;2.33;1.30;;;15.70;99.90;;;;;;5001559;28;20031;-69
2022/07/12 00:54:57;;;;;;;2.38;1.38;;;15.70;99.90;;;;;;5004664;28;20211;-70
2022/07/12 00:57:23;;;;;;;2.25;1.17;;;15.70;99.90;;;;;;5005914;28;20471;-69
2022/07/12 00:59:49;;;;;;;2.08;1.17;;;15.70;99.90;;;;;;5005900;28;20026;-69
2022/07/12 01:02:15;;;;;;;2.83;1.63;;;15.70;99.90;;;;;;5005362;28;20026;-71
2022/07/12 01:04:43;;;;;;;2.45;1.30;;;15.60;99.90;;;;;;5004261;28;20129;-70
2022/07/12 01:07:09;;;;;;;0.98;0.90;;;15.70;99.90;;;;;;5005447;28;20035;-69
2022/07/12 01:09:34;;;;;;;1.73;1.15;;;15.60;99.90;;;;;;5005161;28;20040;-70
2022/07/12 01:12:00;;;;;;;1.40;0.75;;;15.60;99.90;;;;;;5005872;28;20102;-69
2022/07/12 01:14:27;;;;;;;3.90;1.52;;;15.60;99.90;;;;;;5005451;28;20102;-69
2022/07/12 01:16:53;;;;;;;4.30;1.05;;;15.60;99.90;;;;;;5004329;28;20014;-70
2022/07/12 01:19:20;;;;;;;2.03;1.35;;;15.60;99.90;;;;;;5005326;28;20026;-70
2022/07/12 01:21:48;;;;;;;1.58;1.08;;;15.60;99.90;;;;;;5004243;28;20542;-70
2022/07/12 01:24:15;;;;;;;1.45;1.13;;;15.60;99.90;;;;;;5005066;28;20046;-70
2022/07/12 01:26:41;;;;;;;3.50;0.95;;;15.60;99.90;;;;;;5004872;28;20019;-68
2022/07/12 01:29:08;;;;;;;1.95;1.10;;;15.60;99.90;;;;;;5003163;28;20437;-69
2022/07/12 01:31:36;;;;;;;3.80;1.30;;;15.60;99.90;;;;;;5004366;28;20022;-69
2022/07/12 01:34:03;;;;;;;1.83;1.40;;;15.60;99.90;;;;;;5004357;28;20037;-71
2022/07/12 01:36:30;;;;;;;3.00;1.77;;;15.60;99.90;;;;;;5004843;28;20023;-70
2022/07/12 01:38:55;;;;;;;2.92;1.45;;;15.60;99.90;;;;;;5003684;28;20042;-69
2022/07/12 01:41:23;;;;;;;6.05;1.58;;;15.60;99.90;;;;;;5004379;28;20103;-69
2022/07/12 01:43:50;;;;;;;4.15;1.10;;;15.50;99.90;;;;;;5004248;28;20034;-70
2022/07/12 01:46:15;;;;;;;4.47;1.42;;;15.50;99.90;;;;;;5004899;28;20562;-70
2022/07/12 01:48:42;;;;;;;1.55;1.33;;;15.50;99.90;;;;;;5004654;28;20054;-70
2022/07/12 01:51:07;;;;;;;2.90;1.95;;;15.60;99.90;;;;;;5003894;28;20035;-68
2022/07/12 01:53:35;;;;;;;4.32;1.17;;;15.60;99.90;;;;;;5005203;28;20035;-70
2022/07/12 01:56:01;;;;;;;2.15;1.23;;;15.60;99.90;;;;;;5003446;28;20034;-70
2022/07/12 01:58:27;;;;;;;2.38;1.20;;;15.60;99.90;;;;;;5004553;28;20030;-69
2022/07/12 02:00:53;;;;;;;3.13;1.38;;;15.60;99.90;;;;;;5004465;28;20514;-69
2022/07/12 02:03:19;;;;;;;3.05;1.45;;;15.60;99.90;;;;;;5003681;28;20018;-70
2022/07/12 02:05:46;;;;;;;2.13;1.33;;;15.60;99.90;;;;;;5003777;28;20018;-69
2022/07/12 02:08:15;;;;;;;3.25;1.85;;;15.60;99.90;;;;;;5004660;28;20030;-69
2022/07/12 02:10:41;;;;;;;2.05;0.95;;;15.60;99.90;;;;;;5004255;28;20070;-70
2022/07/12 02:13:07;;;;;;;3.17;1.00;;;15.60;99.90;;;;;;5004603;28;20022;-69
2022/07/12 02:15:33;;;;;;;4.00;1.42;;;15.60;99.90;;;;;;5004869;28;20077;-70
2022/07/12 02:17:58;;;;;;;2.78;1.45;;;15.60;99.90;;;;;;5004552;28;20018;-70
2022/07/12 02:20:24;;;;;;;1.95;1.08;;;15.60;99.90;;;;;;5003888;28;20057;-69
2022/07/12 02:22:50;;;;;;;2.28;1.50;;;15.60;99.90;;;;;;5003865;28;20050;-69
2022/07/12 02:25:16;;;;;;;2.70;1.70;;;15.60;99.90;;;;;;5004164;28;20030;-70
2022/07/12 02:27:42;;;;;;;2.53;1.95;;;15.60;99.90;;;;;;5004568;28;20030;-71
2022/07/12 02:30:10;;;;;;;5.32;1.90;;;15.60;99.90;;;;;;5003410;28;20111;-68
2022/07/12 02:32:36;;;;;;;2.38;1.75;;;15.60;99.90;;;;;;5003444;28;20030;-68
2022/07/12 02:35:05;;;;;;;2.55;1.45;;;15.60;99.90;;;;;;5003093;28;20026;-69
2022/07/12 02:37:31;;;;;;;2.67;1.50;;;15.60;99.90;;;;;;5002972;28;20120;-69
2022/07/12 02:42:42;;;;;;;1.90;1.55;;;15.60;99.90;;;;;;5004037;28;20113;-69
2022/07/12 02:45:11;;;;;;;3.90;1.90;;;15.60;99.90;;;;;;5003689;28;20030;-69
2022/07/12 02:47:41;;;;;;;4.03;2.10;;;15.60;99.90;;;;;;5003936;28;20022;-70
2022/07/12 02:50:07;;;;;;;1.48;1.15;;;15.60;99.90;;;;;;5002127;28;20034;-69
2022/07/12 02:52:34;;;;;;;2.83;1.98;;;15.60;99.90;;;;;;5003604;28;20027;-71
2022/07/12 02:54:59;;;;;;;2.25;1.27;;;15.60;99.90;;;;;;5003582;28;20034;-70
2022/07/12 02:57:25;;;;;;;2.28;1.30;;;15.60;99.90;;;;;;5003315;28;20035;-69
2022/07/12 02:59:51;;;;;;;2.30;1.35;;;15.60;99.90;;;;;;5003521;28;20087;-71
2022/07/12 03:02:17;;;;;;;1.15;1.05;;;15.70;99.90;;;;;;5003430;28;20026;-70
2022/07/12 03:04:42;;;;;;;1.98;1.23;;;15.60;99.90;;;;;;5003929;28;20029;-70
2022/07/12 03:07:08;;;;;;;1.75;0.93;;;15.60;99.90;;;;;;5003411;28;20023;-70
2022/07/12 03:09:35;;;;;;;1.67;1.30;;;15.70;99.90;;;;;;5003462;28;20057;-69
2022/07/12 03:12:00;;;;;;;1.52;0.98;;;15.60;99.90;;;;;;5002833;28;20018;-70
2022/07/12 03:14:26;;;;;;;1.70;1.20;;;15.70;99.90;;;;;;5003502;28;20054;-69
2022/07/12 03:16:52;;;;;;;2.40;1.52;;;15.70;99.90;;;;;;5003247;28;20033;-69
2022/07/12 03:19:17;;;;;;;1.27;1.13;;;15.60;99.90;;;;;;5003142;28;20029;-69
2022/07/12 03:21:43;;;;;;;2.25;1.10;;;15.70;99.90;;;;;;5002839;28;20025;-71
2022/07/12 03:24:10;;;;;;;3.05;1.00;;;15.70;99.90;;;;;;5002939;28;20027;-69
2022/07/12 03:26:35;;;;;;;3.15;1.50;;;15.70;99.90;;;;;;5003334;28;20030;-69
2022/07/12 03:29:01;;;;;;;2.15;0.98;;;15.70;99.90;;;;;;5002192;28;20082;-69
2022/07/12 03:31:27;;;;;;;2.08;1.15;;;15.70;99.90;;;;;;5002899;28;20038;-69
2022/07/12 03:33:52;;;;;;;1.83;0.80;;;15.70;99.90;;;;;;5002847;28;20078;-69
2022/07/12 03:36:18;;;;;;;2.65;0.60;;;15.70;99.90;;;;;;5001447;28;20098;-70
2022/07/12 03:38:44;;;;;;;1.80;0.80;;;15.60;99.90;;;;;;5001911;28;20057;-69
2022/07/12 03:41:10;;;;;;;1.77;1.27;;;15.60;99.90;;;;;;5002243;28;20038;-69
2022/07/12 03:43:36;;;;;;;0.98;0.80;;;15.60;99.90;;;;;;5003470;28;20502;-69
2022/07/12 03:46:02;;;;;;;1.83;0.70;;;15.70;99.90;;;;;;5002423;28;20037;-70
2022/07/12 03:48:28;;;;;;;1.70;1.00;;;15.70;99.90;;;;;;5002570;28;20030;-70
2022/07/12 03:50:53;;;;;;;6.80;1.00;;;15.70;99.90;;;;;;5002833;28;20034;-69
2022/07/12 03:53:19;;;;;;;1.75;0.88;;;15.60;99.90;;;;;;5002071;28;20056;-69
2022/07/12 03:55:45;;;;;;;1.15;0.70;;;15.70;99.90;;;;;;5002749;28;20030;-70
2022/07/12 03:58:11;;;;;;;2.60;1.15;;;15.70;99.90;;;;;;4999937;28;20038;-71
2022/07/12 04:00:37;;;;;;;2.97;1.13;;;15.80;99.90;;;;;;5000431;28;20444;-69
2022/07/12 04:03:03;;;;;;;1.80;0.60;;;15.80;99.90;;;;;;5001603;28;20089;-69
2022/07/12 04:05:29;;;;;;;0.85;0.55;;;15.90;99.90;;;;;;5000637;28;20463;-70
2022/07/12 04:07:54;;;;;;;0.77;0.70;;;15.80;99.90;;;;;;5002307;28;20077;-70
2022/07/12 04:10:20;;;;;;;1.80;0.95;;;15.80;99.90;;;;;;5001743;28;20045;-70
2022/07/12 04:12:46;;;;;;;1.17;0.63;;;15.80;99.90;;;;;;5002596;28;20030;-69
2022/07/12 04:15:12;;;;;;;1.48;0.80;;;15.90;99.90;;;;;;5002412;28;20027;-70
2022/07/12 04:17:38;;;;;;;1.02;0.80;;;15.90;99.90;;;;;;5002663;28;20044;-70
2022/07/12 04:20:06;;;;;;;0.65;0.55;;;15.90;99.90;;;;;;5002094;28;20031;-70
2022/07/12 04:22:32;;;;;;;1.02;0.88;;;15.90;99.90;;;;;;5000865;28;20684;-71
2022/07/12 04:24:58;;;;;;;1.55;0.60;;;15.90;99.90;;;;;;5000908;28;20058;-69
2022/07/12 04:27:26;;;;;;;2.65;1.15;;;15.90;99.90;;;;;;5001410;28;20015;-69
2022/07/12 04:29:51;;;;;;;1.33;0.90;;;16.00;99.90;;;;;;5001590;28;20030;-69
2022/07/12 04:32:17;;;;;;;0.68;0.68;;;16.00;99.90;;;;;;5001450;28;21014;-71
2022/07/12 04:34:43;;;;;;;1.08;0.90;;;16.00;99.90;;;;;;5000587;28;20063;-71
2022/07/12 04:37:09;;;;;;;1.20;0.73;;;16.00;99.90;;;;;;5000105;28;20391;-69
2022/07/12 04:39:35;;;;;;;1.33;0.82;;;16.00;99.90;;;;;;4999863;28;20038;-69
2022/07/12 04:42:01;;;;;;;1.35;0.90;;;16.00;99.90;;;;;;5001607;28;20099;-68
2022/07/12 04:44:26;;;;;;;2.08;1.17;;;16.10;99.90;;;;;;5001737;28;20027;-69
2022/07/12 04:46:52;;;;;;;2.15;1.02;;;16.10;99.90;;;;;;5002511;28;20030;-69
2022/07/12 04:49:18;;;;;;;3.22;1.00;;;16.00;99.90;;;;;;5000993;28;20109;-69
2022/07/12 04:51:43;;;;;;;1.27;0.73;;;16.00;99.90;;;;;;5001679;28;20467;-70
2022/07/12 04:54:09;;;;;;;0.70;0.57;;;15.90;99.90;;;;;;5002012;28;20038;-69
2022/07/12 04:56:34;;;;;;;1.08;0.63;;;16.00;99.90;;;;;;5001022;28;20026;-69
2022/07/12 04:59:00;;;;;;;1.15;0.85;;;15.80;99.90;;;;;;5001576;28;20031;-69
2022/07/12 05:01:25;;;;;;;0.80;0.80;;;15.90;99.90;;;;;;5001455;28;20022;-68
2022/07/12 05:03:51;;;;;;;0.95;0.88;;;15.90;99.90;;;;;;4997998;28;20101;-69
2022/07/12 05:06:18;;;;;;;0.60;0.50;;;16.00;99.90;;;;;;4999984;28;20026;-69
2022/07/12 05:08:43;;;;;;;0.52;0.45;;;16.00;99.90;;;;;;5000741;28;20034;-68
2022/07/12 05:11:09;;;;;;;2.92;0.77;;;15.90;99.90;;;;;;5000388;28;20046;-69
2022/07/12 05:13:34;;;;;;;0.98;0.68;;;16.00;99.90;;;;;;5002172;28;20034;-69
2022/07/12 05:16:00;;;;;;;1.30;0.75;;;16.00;99.90;;;;;;5000866;28;20467;-69
2022/07/12 05:18:26;;;;;;;5.38;0.73;;;16.00;99.90;;;;;;5001244;28;20089;-68
2022/07/12 05:20:51;;;;;;;1.23;0.70;;;16.00;99.90;;;;;;5001580;28;20014;-70
2022/07/12 05:23:17;;;;;;;1.75;0.70;;;16.10;99.90;;;;;;5000952;28;20023;-69
2022/07/12 05:25:43;;;;;;;1.20;0.60;;;16.10;99.90;;;;;;5001256;28;20033;-69
2022/07/12 05:28:08;;;;;;;0.82;0.60;;;16.10;99.90;;;;;;5000881;28;20046;-70
2022/07/12 05:30:34;;;;;;;2.78;0.93;;;16.10;99.90;;;;;;5001334;28;20133;-69
2022/07/12 05:33:00;;;;;;;0.82;0.40;;;16.10;99.90;;;;;;5001510;28;20026;-69
2022/07/12 05:35:26;;;;;;;1.10;0.70;;;16.10;99.90;;;;;;5001006;28;20023;-69
2022/07/12 05:37:51;;;;;;;1.08;0.60;;;16.10;99.90;;;;;;4999738;28;20033;-69
2022/07/12 05:40:20;;;;;;;1.75;0.88;;;16.20;99.90;;;;;;5001336;28;20065;-70
2022/07/12 05:42:46;;;;;;;1.05;0.63;;;16.10;99.90;;;;;;5003898;28;20038;-70
2022/07/12 05:45:12;;;;;;;1.13;0.80;;;16.10;99.90;;;;;;5004602;28;20026;-67
2022/07/12 05:47:38;;;;;;;1.52;0.55;;;16.20;99.90;;;;;;5003490;28;20110;-70
2022/07/12 05:50:04;;;;;;;1.70;0.65;;;16.10;99.90;;;;;;5004570;28;20022;-68
2022/07/12 05:55:23;;;;;;;0.30;0.30;;;16.10;99.90;;;;;;5005293;28;20025;-69
2022/07/12 05:57:49;;;;;;;1.17;0.60;;;16.10;99.90;;;;;;5004517;28;20042;-70
2022/07/12 06:00:21;;;;;;;7.80;0.52;;;16.20;99.90;;;;;;5004064;28;20034;-67
2022/07/12 06:02:46;;;;;;;0.47;0.47;;;16.10;99.90;;;;;;5003670;28;20108;-68
2022/07/12 06:05:12;;;;;;;0.45;0.40;;;16.10;99.90;;;;;;5003245;28;20066;-69
2022/07/12 06:07:38;;;;;;;1.02;0.68;;;16.20;99.90;;;;;;5003778;28;20038;-68
2022/07/12 06:10:04;;;;;;;0.95;0.65;;;16.30;99.90;;;;;;5004507;28;20049;-68
2022/07/12 06:12:29;;;;;;;1.05;0.70;;;16.20;99.90;;;;;;5002956;28;20022;-68
2022/07/12 06:14:55;;;;;;;1.42;0.80;;;16.10;99.90;;;;;;5003969;28;20033;-69
2022/07/12 06:17:23;;;;;;;1.13;0.50;;;16.10;99.90;;;;;;5004462;28;20030;-69
2022/07/12 06:19:49;;;;;;;0.90;0.50;;;16.10;99.90;;;;;;5003817;28;20047;-69
2022/07/12 06:22:14;;;;;;;0.32;0.30;;;16.20;99.90;;;;;;5004692;28;20037;-70
2022/07/12 06:24:40;;;;;;;0.70;0.45;;;16.30;99.90;;;;;;5004707;28;20061;-69
2022/07/12 06:27:06;;;;;;;0.82;0.55;;;16.30;99.90;;;;;;5003373;28;20082;-69
2022/07/12 06:29:31;;;;;;;0.68;0.50;;;16.40;99.90;;;;;;5002873;28;20105;-69
2022/07/12 06:31:57;;;;;;;0.38;0.30;;;16.40;99.90;;;;;;5003820;28;20034;-68
2022/07/12 06:34:22;;;;;;;1.73;0.77;;;16.50;99.90;;;;;;5004038;28;20022;-68
2022/07/12 06:36:48;;;;;;;1.38;0.73;;;16.60;99.90;;;;;;5002745;28;20053;-71
2022/07/12 06:39:14;;;;;;;2.45;1.02;;;16.50;99.90;;;;;;5000906;28;20100;-70
2022/07/12 06:41:40;;;;;;;1.77;0.88;;;16.70;99.90;;;;;;5001218;28;20133;-68
2022/07/12 06:44:05;;;;;;;0.98;0.60;;;16.70;99.90;;;;;;5001575;28;20108;-69
2022/07/12 06:46:31;;;;;;;0.90;0.65;;;16.80;99.90;;;;;;4999837;28;21289;-69
2022/07/12 06:49:02;;;;;;;0.65;0.65;;;16.80;99.90;;;;;;5002564;28;20026;-68
2022/07/12 06:51:28;;;;;;;2.28;0.93;;;16.90;99.90;;;;;;4999566;28;20129;-69
2022/07/12 06:53:56;;;;;;;0.70;0.50;;;16.90;99.90;;;;;;5000779;28;20069;-69
2022/07/12 06:56:22;;;;;;;0.43;0.43;;;16.90;99.90;;;;;;5000550;28;20129;-69
2022/07/12 06:58:47;;;;;;;1.50;1.17;;;17.00;99.90;;;;;;5001598;28;20096;-69
2022/07/12 07:01:13;;;;;;;3.63;0.98;;;17.00;99.90;;;;;;4999896;28;20027;-69
2022/07/12 07:03:38;;;;;;;0.50;0.43;;;17.10;99.90;;;;;;5002675;28;20034;-69
2022/07/12 07:06:04;;;;;;;0.57;0.50;;;17.20;99.90;;;;;;5003490;28;20026;-68
2022/07/12 07:08:31;;;;;;;1.13;0.73;;;17.20;99.90;;;;;;4999905;28;20105;-69
2022/07/12 07:10:57;;;;;;;0.75;0.73;;;17.30;99.90;;;;;;5001870;28;20093;-69
2022/07/12 07:13:22;;;;;;;1.30;0.80;;;17.40;99.90;;;;;;5002021;28;20042;-69
2022/07/12 07:15:48;;;;;;;2.28;1.23;;;17.40;99.90;;;;;;5001435;28;20034;-69
2022/07/12 07:18:13;;;;;;;0.55;0.55;;;17.60;99.90;;;;;;5003648;28;20038;-69
2022/07/12 07:20:40;;;;;;;2.13;0.88;;;17.60;99.90;;;;;;5002766;28;20494;-67
2022/07/12 07:23:07;;;;;;;1.42;1.10;;;17.70;99.90;;;;;;5002311;28;20018;-69
2022/07/12 07:25:32;;;;;;;1.02;0.95;;;17.70;99.90;;;;;;5000518;28;20030;-68
2022/07/12 07:27:58;;;;;;;1.35;1.02;;;17.80;99.90;;;;;;4995511;28;20034;-68
2022/07/12 07:33:07;;;;;;;1.23;1.10;;;17.80;99.90;;;;;;5000537;28;20102;-68
2022/07/12 07:35:33;;;;;;;1.83;0.93;;;17.90;99.90;;;;;;5000011;28;20078;-68
2022/07/12 07:37:58;;;;;;;1.23;0.95;;;17.90;99.90;;;;;;5001959;28;20030;-70
2022/07/12 07:40:24;;;;;;;1.42;1.08;;;18.00;99.90;;;;;;5000313;28;20108;-68
2022/07/12 07:42:49;;;;;;;1.67;1.08;;;18.10;99.90;;;;;;5001430;28;20065;-68
2022/07/12 07:45:15;;;;;;;1.58;1.10;;;18.20;99.90;;;;;;5002444;28;20034;-70
2022/07/12 07:47:48;;;;;;;1.58;1.08;;;18.20;99.90;;;;;;5002917;28;20026;-68
2022/07/12 07:50:15;;;;;;;3.63;1.05;;;18.30;99.90;;;;;;5001689;28;20069;-70
2022/07/12 07:52:40;;;;;;;2.95;1.20;;;18.30;99.90;;;;;;5001637;28;20061;-68
2022/07/12 07:55:06;;;;;;;1.67;0.93;;;18.30;99.90;;;;;;5001935;28;20030;-67
2022/07/12 07:57:32;;;;;;;0.85;0.73;;;18.30;99.90;;;;;;5000413;28;20058;-67
2022/07/12 07:59:57;;;;;;;0.82;0.63;;;18.30;99.90;;;;;;5001794;28;20077;-68
2022/07/12 08:02:23;;;;;;;1.70;0.90;;;18.30;99.90;;;;;;5001939;28;20061;-67
2022/07/12 08:04:49;;;;;;;1.88;0.88;;;18.40;99.90;;;;;;5001718;28;20038;-68
2022/07/12 08:07:14;;;;;;;5.03;1.40;;;18.40;99.90;;;;;;5002350;28;20487;-70
2022/07/12 08:09:40;;;;;;;1.67;1.05;;;18.50;99.90;;;;;;5001812;28;20034;-70
2022/07/12 08:12:05;;;;;;;1.90;1.20;;;18.60;99.90;;;;;;5002098;28;20042;-68
2022/07/12 08:14:31;;;;;;;3.03;1.08;;;18.70;99.90;;;;;;5001834;28;20033;-69
2022/07/12 08:16:57;;;;;;;0.88;0.80;;;18.70;99.90;;;;;;5002056;28;20034;-68
2022/07/12 08:19:22;;;;;;;1.90;0.93;;;18.80;99.90;;;;;;5001566;28;20058;-67
2022/07/12 08:21:48;;;;;;;1.27;1.00;;;18.90;99.90;;;;;;5001524;28;20394;-68
2022/07/12 08:24:13;;;;;;;1.80;0.95;;;18.90;99.90;;;;;;5000874;28;20041;-68
2022/07/12 08:26:39;;;;;;;1.00;0.75;;;18.90;99.90;;;;;;5001931;28;20049;-68
2022/07/12 08:29:06;;;;;;;1.80;1.45;;;18.90;99.90;;;;;;5001593;28;20027;-68
2022/07/12 08:31:31;;;;;;;1.02;0.77;;;18.90;99.90;;;;;;5001328;28;20191;-68
2022/07/12 08:33:57;;;;;;;2.10;1.17;;;18.90;99.90;;;;;;5002286;28;20049;-67
2022/07/12 08:36:22;;;;;;;2.53;1.40;;;18.90;99.90;;;;;;5001232;28;20014;-68
2022/07/12 08:38:48;;;;;;;8.98;1.60;;;19.00;99.90;;;;;;5000426;28;20058;-68
2022/07/12 08:41:14;;;;;;;3.60;1.42;;;19.00;99.90;;;;;;5002168;28;20057;-68
2022/07/12 08:43:40;;;;;;;2.00;1.20;;;19.10;99.90;;;;;;5001346;28;20041;-70
2022/07/12 08:46:08;;;;;;;5.63;2.13;;;19.20;99.90;;;;;;5001531;28;20064;-68
2022/07/12 08:48:37;;;;;;;2.10;1.13;;;19.40;99.90;;;;;;5001699;28;20034;-68
2022/07/12 08:51:05;;;;;;;1.88;1.10;;;19.60;99.90;;;;;;5000715;28;20104;-69
2022/07/12 08:53:31;;;;;;;1.90;1.05;;;19.70;99.90;;;;;;5001403;28;20023;-67
2022/07/12 08:55:57;;;;;;;0.95;0.75;;;19.90;99.90;;;;;;5000641;28;20042;-68
2022/07/12 08:58:22;;;;;;;1.83;1.20;;;20.00;99.90;;;;;;4999064;28;20053;-70
2022/07/12 09:00:48;;;;;;;2.40;1.15;;;20.00;99.90;;;;;;4998567;28;20038;-68
2022/07/12 09:03:14;;;;;;;2.05;1.08;;;20.10;99.90;;;;;;5000839;28;20033;-68
2022/07/12 09:05:54;;;;;;;1.95;1.35;;;20.00;99.90;;;;;;5002079;28;20026;-67
2022/07/12 09:08:31;;;;;;;2.45;1.10;;;20.10;99.90;;;;;;5000531;28;20118;-68
2022/07/12 09:11:03;;;;;;;2.35;1.33;;;20.10;99.90;;;;;;5000991;28;20620;-69
2022/07/12 09:13:50;;;;;;;3.28;1.98;;;20.20;99.90;;;;;;5001611;28;20029;-68
2022/07/12 09:16:18;;;;;;;2.67;1.58;;;20.30;99.90;;;;;;5004367;28;20074;-68
2022/07/12 09:18:45;;;;;;;3.78;1.73;;;20.30;99.90;;;;;;5005701;28;20058;-69
2022/07/12 09:21:25;;;;;;;2.20;1.23;;;20.40;99.90;;;;;;5004563;28;20038;-68
2022/07/12 09:23:52;;;;;;;1.83;1.40;;;20.40;99.90;;;;;;5005625;28;20078;-69
2022/07/12 09:26:17;;;;;;;10.02;1.30;;;20.50;99.90;;;;;;5003652;28;20034;-68
2022/07/12 09:28:43;;;;;;;2.30;1.33;;;20.50;99.90;;;;;;5004943;28;20118;-68
2022/07/12 09:31:09;;;;;;;2.58;1.33;;;20.50;99.90;;;;;;5002879;28;20134;-68
2022/07/12 09:36:24;;;;;;;1.98;1.40;;;20.60;99.90;;;;;;5003378;28;20029;-67
2022/07/12 09:38:49;;;;;;;2.97;1.40;;;20.70;99.90;;;;;;5004160;28;20042;-67
2022/07/12 09:41:17;;;;;;;1.10;1.00;;;20.80;99.90;;;;;;5004236;28;20057;-67
2022/07/12 09:43:44;;;;;;;2.10;1.33;;;20.80;99.90;;;;;;5004276;28;20030;-68
2022/07/12 09:46:10;;;;;;;1.35;0.80;;;20.90;99.90;;;;;;5005239;28;20011;-67
2022/07/12 09:48:37;;;;;;;2.15;1.15;;;21.00;99.90;;;;;;5005150;28;20081;-67
2022/07/12 09:51:04;;;;;;;2.17;1.00;;;21.00;99.90;;;;;;5004471;28;20118;-67
2022/07/12 09:53:37;;;;;;;2.58;1.15;;;21.10;99.90;;;;;;5004082;28;20026;-67
2022/07/12 09:56:05;;;;;;;1.60;1.20;;;21.20;99.90;;;;;;5004082;28;20026;-67
2022/07/12 09:58:38;;;;;;;1.80;1.00;;;21.20;99.90;;;;;;5004599;28;20025;-67
2022/07/12 10:01:06;;;;;;;2.88;1.65;;;21.30;99.90;;;;;;5004062;28;20034;-68
2022/07/12 10:03:34;;;;;;;1.90;1.10;;;21.30;99.90;;;;;;5004126;28;20030;-68
2022/07/12 10:06:02;;;;;;;2.22;1.15;;;21.30;99.90;;;;;;5004178;28;20018;-67
2022/07/12 10:08:29;;;;;;;1.10;1.00;;;21.40;99.90;;;;;;5004004;28;20033;-67
2022/07/12 10:10:55;;;;;;;3.20;0.80;;;21.60;99.90;;;;;;5002978;28;20046;-66
2022/07/12 10:13:21;;;;;;;1.13;0.88;;;21.60;99.90;;;;;;5003950;28;20041;-69
2022/07/12 10:15:49;;;;;;;1.25;0.63;;;21.60;99.90;;;;;;5001968;28;20113;-68
2022/07/12 10:18:21;;;;;;;0.68;0.60;;;21.70;99.90;;;;;;5004187;28;20509;-68
2022/07/12 10:20:49;;;;;;;0.80;0.80;;;21.80;99.90;;;;;;5004438;28;20033;-68
2022/07/12 10:23:17;;;;;;;0.45;0.40;;;21.90;99.90;;;;;;4999468;28;20049;-67
2022/07/12 10:25:43;;;;;;;1.85;0.77;;;21.90;99.90;;;;;;4997061;28;20798;-70
2022/07/12 10:28:09;;;;;;;3.22;0.73;;;22.00;99.90;;;;;;5002752;28;20045;-69
2022/07/12 10:30:47;;;;;;;0.80;0.45;;;22.00;99.90;;;;;;5003664;28;20434;-68
2022/07/12 10:33:21;;;;;;;1.33;0.85;;;22.10;99.90;;;;;;5002868;28;20030;-71
2022/07/12 10:36:08;;;;;;;1.45;0.85;;;22.20;99.90;;;;;;5003795;28;20034;-69
2022/07/12 10:38:35;;;;;;;0.82;0.57;;;22.20;99.90;;;;;;5001422;28;20502;-69
2022/07/12 10:41:21;;;;;;;0.98;0.47;;;22.20;99.90;;;;;;5002944;28;20038;-68
2022/07/12 10:44:05;;;;;;;0.52;0.40;;;22.40;99.90;;;;;;5002996;28;20031;-68
2022/07/12 10:46:33;;;;;;;0.43;0.30;;;22.60;99.90;;;;;;5003592;28;20082;-67
2022/07/12 10:49:27;;;;;;;0.85;0.47;;;22.70;99.90;;;;;;5002940;28;20069;-68
2022/07/12 10:52:13;;;;;;;0.52;0.45;;;22.90;99.90;;;;;;5000727;28;20061;-67
2022/07/12 10:55:13;;;;;;;0.28;0.28;;;22.90;99.90;;;;;;5002790;28;20026;-67
2022/07/12 10:57:46;;;;;;;0.85;0.40;;;23.00;99.90;;;;;;5001090;28;20536;-66
2022/07/12 11:00:13;;;;;;;0.75;0.40;;;23.10;99.90;;;;;;5002719;28;20033;-70
2022/07/12 11:02:39;;;;;;;0.60;0.38;;;23.30;99.90;;;;;;5001701;28;20030;-67
2022/07/12 11:05:05;;;;;;;6.32;0.60;;;23.50;99.90;;;;;;5001392;28;20034;-67
2022/07/12 11:07:31;;;;;;;1.00;0.60;;;23.60;99.90;;;;;;5000232;28;20054;-67
2022/07/12 11:09:57;;;;;;;0.32;0.22;;;23.70;99.90;;;;;;5000913;28;20030;-67
2022/07/12 11:12:32;;;;;;;2.05;0.55;;;23.80;99.90;;;;;;5001613;28;20018;-67
2022/07/12 11:14:59;;;;;;;1.65;0.70;;;23.90;99.90;;;;;;5001523;28;20030;-67
2022/07/12 11:17:27;;;;;;;0.35;0.32;;;24.00;99.90;;;;;;5001863;28;20076;-66
2022/07/12 11:20:13;;;;;;;0.32;0.28;;;24.20;99.90;;;;;;5001270;28;20033;-70
2022/07/12 11:22:43;;;;;;;0.32;0.30;;;24.30;99.90;;;;;;5001840;28;20095;-69
2022/07/12 11:25:10;;;;;;;0.60;0.45;;;24.50;99.90;;;;;;5001869;28;20095;-68
2022/07/12 11:27:36;;;;;;;0.85;0.43;;;24.50;99.90;;;;;;5000973;28;20097;-68
2022/07/12 11:30:04;;;;;;;0.30;0.30;;;24.50;99.90;;;;;;5001740;28;20455;-68
2022/07/12 11:32:39;;;;;;;1.08;0.55;;;24.50;99.90;;;;;;5001249;28;20030;-68
2022/07/12 11:35:20;;;;;;;0.50;0.40;;;24.30;99.90;;;;;;5001406;28;20034;-67
2022/07/12 11:37:56;;;;;;;0.77;0.40;;;24.30;99.90;;;;;;5000979;28;20019;-68
2022/07/12 11:40:27;;;;;;;0.65;0.32;;;24.20;99.90;;;;;;5000390;28;20055;-68
2022/07/12 11:42:58;;;;;;;0.82;0.40;;;24.20;99.90;;;;;;5000975;28;20025;-68
2022/07/12 11:45:26;;;;;;;0.70;0.47;;;24.10;99.90;;;;;;5000919;28;20034;-68
2022/07/12 11:47:52;;;;;;;0.52;0.35;;;24.20;99.90;;;;;;5001368;28;20056;-68
2022/07/12 11:50:19;;;;;;;2.28;0.70;;;24.20;99.90;;;;;;5000672;28;20038;-69
2022/07/12 11:52:45;;;;;;;0.20;0.20;;;24.30;99.90;;;;;;5001246;28;20376;-69
2022/07/12 11:55:11;;;;;;;2.88;0.50;;;24.50;99.90;;;;;;5000765;28;20032;-69
2022/07/12 11:57:37;;;;;;;4.60;0.68;;;24.60;99.90;;;;;;5000230;28;20050;-68
2022/07/12 12:00:17;;;;;;;1.20;0.73;;;24.60;99.90;;;;;;5000598;28;21178;-70
2022/07/12 12:02:43;;;;;;;0.70;0.47;;;24.70;99.90;;;;;;5001148;28;20046;-70
2022/07/12 12:05:10;;;;;;;0.57;0.47;;;24.70;99.90;;;;;;5000154;28;20053;-67
2022/07/12 12:07:35;;;;;;;0.90;0.50;;;24.80;99.90;;;;;;5000330;28;20023;-68
2022/07/12 12:10:05;;;;;;;1.13;0.63;;;25.00;99.90;;;;;;4999663;28;20058;-67
2022/07/12 12:12:48;;;;;;;1.73;0.57;;;25.20;99.90;;;;;;4999700;28;20150;-68
2022/07/12 12:15:19;;;;;;;0.70;0.60;;;25.20;99.90;;;;;;4999986;28;20041;-70
2022/07/12 12:17:51;;;;;;;0.70;0.50;;;25.30;99.90;;;;;;4999133;28;20030;-68
2022/07/12 12:20:20;;;;;;;0.57;0.40;;;25.30;99.90;;;;;;5000248;28;20026;-69
2022/07/12 12:22:47;;;;;;;0.35;0.35;;;25.40;99.90;;;;;;5001294;28;20026;-69
2022/07/12 12:25:14;;;;;;;1.33;0.95;;;25.50;99.90;;;;;;4998525;28;20054;-71
2022/07/12 12:27:57;;;;;;;0.60;0.57;;;25.70;99.90;;;;;;5001432;28;20019;-68
2022/07/12 12:30:23;;;;;;;0.73;0.43;;;25.70;99.90;;;;;;5000239;28;20092;-68
2022/07/12 12:32:57;;;;;;;0.70;0.40;;;25.80;99.90;;;;;;5000622;28;20035;-68
2022/07/12 12:35:36;;;;;;;1.75;1.00;;;25.90;99.90;;;;;;5001409;28;20033;-68
2022/07/12 12:38:10;;;;;;;0.60;0.60;;;26.00;99.90;;;;;;5001676;28;20057;-68
2022/07/12 12:40:35;;;;;;;0.30;0.30;;;26.30;99.90;;;;;;5001331;28;20465;-68
2022/07/12 12:43:09;;;;;;;1.20;0.45;;;26.50;99.90;;;;;;5001329;28;20585;-65
2022/07/12 12:45:35;;;;;;;1.02;0.60;;;26.70;99.90;;;;;;5001639;28;20033;-68
2022/07/12 12:48:05;;;;;;;1.00;0.57;;;26.90;99.90;;;;;;5002087;28;20035;-68
2022/07/12 12:50:47;;;;;;;0.82;0.57;;;27.10;99.90;;;;;;5004796;28;20039;-68
2022/07/12 12:53:19;;;;;;;0.40;0.40;;;27.30;99.90;;;;;;5005629;28;20034;-68
2022/07/12 12:55:46;;;;;;;1.48;1.00;;;27.40;99.90;;;;;;5005582;28;20073;-69
2022/07/12 12:58:12;;;;;;;0.57;0.40;;;27.50;99.90;;;;;;5006013;28;20026;-69
2022/07/12 13:00:41;;;;;;;0.70;0.40;;;27.40;99.90;;;;;;5006163;28;20019;-67